東京/横田 の空港の天気 - METARとTAF

横田飛行場 ( RJTY / OKO ) - 東京都福生市
飛行場実況気象(Metar)
観測時間09/25 16:08 JST (09/25 07:08 UTC)
風向・風速北 4m/s
視程10km以上
天気現象
少しの雲 雲底高度 1010m
気温20℃
湿度94%
気圧1005.1hPa
METARRJTY 250708Z AUTO 35007KT 10SM FEW033 20/19 A2968 RMK AO2 RAE02DZB02E08 SLP051 FZRANO $
過去の天気等 Google飛行場航空写真 Wunderground天気予報

過去48時間のMETAR

飛行場予報(TAF)
発表時間: 9/25 14:00 JST (9/25 05:00 UTC)
予報対象時間: 25日14時 JST ~ 26日20時 JST
風向・風速北北西 6m/s
視程10km以上
全天の4割程度の雲 雲底高度 610m
全天を覆う雲 雲底高度 910m
25日14時 JST ~ 25日20時 JST に一時的に
視程4800m
天気現象弱い雨 もや
全天の4割程度の雲 雲底高度 300m
全天を覆う雲 雲底高度 610m
25日19時 JST ~ 25日20時 JST に徐々に
風向・風速不定 3m/s
視程4800m
天気現象弱い雨 もや
全天の8割程度の雲 雲底高度 300m
全天を覆う雲 雲底高度 610m
26日9時 JST ~ 26日10時 JST に徐々に
風向・風速北北東 5m/s
視程10km以上
天気現象運行に影響にある天気現象が終了
全天の4割程度の雲 雲底高度 610m
全天の8割程度の雲 雲底高度 910m
TAF RJTY 250500Z 2505/2611 34012KT 9999 SCT020 OVC030 510509 QNH2965INS
TEMPO 2505/2511 4800 -RA BR SCT010 OVC020
BECMG 2510/2511 VRB06KT 4800 -RA BR BKN010 OVC020 QNH2963INS
BECMG 2600/2601 03009KT 9999 NSW SCT020 BKN030 QNH2965INS TX24/2605Z TN18/2518Z
日本の空港のMETAR・TAFへのリンク

RJTT 東京国際空港
RJAA 新東京国際空港
RJBB 関西国際空港
RJOO 大阪空港
RJGG 中部国際空港
RJCC 新千歳空港
RJFF 福岡空港
ROAH 那覇空港


RJEC 旭川空港
RJCH 函館空港
RJCK 釧路空港
RJCM 女満別空港
RJCB 帯広空港
RJSA 青森空港
RJSS 仙台空港
RJSK 秋田空港
RJSF 福島空港
RJAH 茨城空港
RJSN 新潟空港
RJNT 富山空港
RJNK 小松飛行場
RJNS 静岡空港
RJOH 美保飛行場
RJOC 出雲空港
RJOB 岡山空港
RJOA 広島空港
RJOI 岩国飛行場
RJOT 高松空港
RJOM 松山空港
RJOK 高知空港
RJFR 北九州空港
RJFT 熊本空港
RJFU 長崎空港
RJFS 佐賀空港
RJFO 大分空港
RJFM 宮崎空港
RJFK 鹿児島空港
ROIG 石垣島空港
RJTY 横田飛行場
ROTM 普天間飛行場
RODN 嘉手納飛行場